Airfield :
LOGIN :

Register | Disclaimer

   EN    FR    IT 

 










Legend :    VFR   Marginal VFR   IFR   Intensive IFR   Very Intensive IFR
Visi :
Ceiling :
>= 8 km
>= 3000ft
5 to 8 km
1000 to 3000 ft
1500m to 5 km
500 to 1000 ft
800 to 1500m
200 to 500 ft
< 800m
< 200 ft
Symbols :   Thunderstorms  Fog  Heavy snow  Heavy precipitations  Wind > 20 kt
SIGMETs :     Misc.  Thunderstorms  Icing  Turbulence  Mountain Waves  Volcanic Ashes







- Airport Elevation : 195 ft
- Download approach charts


LFMY - Salon de Provence

CURRENT METAR :
  • 232000Z AUTO 15006KT 130V190 9000 -TSRA FEW031/// BKN054/// OVC072/// ///CB 12/10 Q1014

EXPIRED METARs :
  • 231930Z AUTO 19013KT 160V220 3500 R16/1400U +TSRA BR FEW019/// SCT027/// BKN033/// ///CB 11/09 Q1014
  • 231900Z AUTO 16009KT 130V190 4900 TSRA BR BKN031/// BKN054/// OVC066/// ///CB 11/09 Q1013 TEMPO 15020G35KT
  • 231830Z AUTO 16011G26KT 130V200 9000 RA VCTS FEW015/// BKN032/// BKN042/// ///CB 12/10 Q1013 TEMPO 3000 TSRA
  • 231800Z AUTO 18009KT 9999 4600 +RA VCTS BKN019/// BKN031/// OVC050/// ///CB 14/12 Q1012 TEMPO 15020G35KT 3000 TSRA
  • 231730Z AUTO 15012KT 9999 TS BKN018/// BKN042/// BKN054/// ///CB 14/12 Q1012 TEMPO 15020G35KT 3000 TSRA

TAF TAF LFMY
Valid from the 23 at 15:00 until the 24 at 15:00 UTC


231400Z 2315/2415 16015G25KT 9999 BKN020 BKN030
TEMPO 2315/2414 4000 SHRA SCT010 BKN020TCU BKN030
PROB40
TEMPO 2317/2323 15020G35KT 3000 TSRA SCT010 BKN020CB
BECMG 2400/2402 10008KT
BECMG 2412/2414 12020G35KT
No reported NOTAMs for that airfield.
1 SIGMET reported for the Marseille FIR (LFMM) :
 
Embedded thunderstorms
LFMM SIGMET 15 VALID 231800/232000 LFPW
LFMM MARSEILLE FIR/UIR EMBD TS FCST WI N4630 E00330 - N4630 E00600 - N4300 E00530 - N4345 E00345 TOP FL320 STNR NC=



MET'MAP, your aeronautical weather chart ! - Copyright ORBIFLY December 2007 - Disclaimer

ORBIFLY MET'MAP TEAM :

Programming & Development : Alexandra Zaïnal
Concept & Development : Baudouin d'Aumeries
Co-Development & Prog : Marc-Olivier Méhu
Technical & hardware support : Manuel Goepfert

Contact : metmap@orbifly.com




SOURCES & CREDITS :

   NOAA